地図

経路データ

SID SEASON NUMBER BASIN SUBBASIN NAME ISO_TIME NATURE LAT LON WMO_WIND WMO_PRES WMO_AGENCY TRACK_TYPE DIST2LAND LANDFALL IFLAG USA_AGENCY USA_ATCF_ID USA_LAT USA_LON USA_RECORD USA_STATUS USA_WIND USA_PRES USA_SSHS USA_R34_NE USA_R34_SE USA_R34_SW USA_R34_NW USA_R50_NE USA_R50_SE USA_R50_SW USA_R50_NW USA_R64_NE USA_R64_SE USA_R64_SW USA_R64_NW USA_POCI USA_ROCI USA_RMW USA_EYE TOKYO_LAT TOKYO_LON TOKYO_GRADE TOKYO_WIND TOKYO_PRES TOKYO_R50_DIR TOKYO_R50_LONG TOKYO_R50_SHORT TOKYO_R30_DIR TOKYO_R30_LONG TOKYO_R30_SHORT TOKYO_LAND CMA_LAT CMA_LON CMA_CAT CMA_WIND CMA_PRES HKO_LAT HKO_LON HKO_CAT HKO_WIND HKO_PRES NEWDELHI_LAT NEWDELHI_LON NEWDELHI_GRADE NEWDELHI_WIND NEWDELHI_PRES NEWDELHI_CI NEWDELHI_DP NEWDELHI_POCI REUNION_LAT REUNION_LON REUNION_TYPE REUNION_WIND REUNION_PRES REUNION_TNUM REUNION_CI REUNION_RMW REUNION_R34_NE REUNION_R34_SE REUNION_R34_SW REUNION_R34_NW REUNION_R50_NE REUNION_R50_SE REUNION_R50_SW REUNION_R50_NW REUNION_R64_NE REUNION_R64_SE REUNION_R64_SW REUNION_R64_NW BOM_LAT BOM_LON BOM_TYPE BOM_WIND BOM_PRES BOM_TNUM BOM_CI BOM_RMW BOM_R34_NE BOM_R34_SE BOM_R34_SW BOM_R34_NW BOM_R50_NE BOM_R50_SE BOM_R50_SW BOM_R50_NW BOM_R64_NE BOM_R64_SE BOM_R64_SW BOM_R64_NW BOM_ROCI BOM_POCI BOM_EYE BOM_POS_METHOD BOM_PRES_METHOD NADI_LAT NADI_LON NADI_CAT NADI_WIND NADI_PRES WELLINGTON_LAT WELLINGTON_LON WELLINGTON_WIND WELLINGTON_PRES DS824_LAT DS824_LON DS824_STAGE DS824_WIND DS824_PRES TD9636_LAT TD9636_LON TD9636_STAGE TD9636_WIND TD9636_PRES TD9635_LAT TD9635_LON TD9635_WIND TD9635_PRES TD9635_ROCI NEUMANN_LAT NEUMANN_LON NEUMANN_CLASS NEUMANN_WIND NEUMANN_PRES MLC_LAT MLC_LON MLC_CLASS MLC_WIND MLC_PRES USA_GUST BOM_GUST BOM_GUST_PER REUNION_GUST REUNION_GUST_PER USA_SEAHGT USA_SEARAD_NE USA_SEARAD_SE USA_SEARAD_SW USA_SEARAD_NW STORM_SPEED STORM_DIR
1990251N06171 1990 83 WP MM FLO 1990-09-08 00:00:00 NR 5.50000 170.500 main 1893 1861 O_____________ jtwc_wp WP201990 5.50000 170.500 15 -1 21 286
1990251N06171 1990 83 WP MM FLO 1990-09-08 03:00:00 NR 5.79037 169.493 main 1861 1836 P_____________ WP201990 5.79037 169.493 15 -1 21 287
1990251N06171 1990 83 WP MM FLO 1990-09-08 06:00:00 NR 6.10000 168.500 main 1835 1821 O_____________ jtwc_wp WP201990 6.10000 168.500 15 -1 21 289
1990251N06171 1990 83 WP MM FLO 1990-09-08 09:00:00 NR 6.44232 167.535 main 1817 1816 P_____________ WP201990 6.44232 167.535 15 -1 20 290
1990251N06171 1990 83 WP MM FLO 1990-09-08 12:00:00 NR 6.80000 166.600 main 1820 1816 O_____________ jtwc_wp WP201990 6.80000 166.600 15 -1 20 292
1990251N06171 1990 83 WP MM FLO 1990-09-08 15:00:00 NR 7.16478 165.692 main 1830 1820 P_____________ WP201990 7.16478 165.692 15 -1 19 291
1990251N06171 1990 83 WP MM FLO 1990-09-08 18:00:00 NR 7.50000 164.800 main 1820 1788 O_____________ jtwc_wp WP201990 7.50000 164.800 15 -1 19 289
1990251N06171 1990 83 WP MM FLO 1990-09-08 21:00:00 NR 7.78763 163.840 main 1785 1749 P_____________ WP201990 7.78763 163.840 15 -1 19 286
1990251N06171 1990 83 WP MM FLO 1990-09-09 00:00:00 NR 8.00000 163.000 main 1749 1722 O_____________ jtwc_wp WP201990 8.00000 163.000 15 -1 14 283
1990251N06171 1990 83 WP MM FLO 1990-09-09 03:00:00 NR 8.12220 162.425 main 1715 1697 P_____________ WP201990 8.12220 162.425 15 -1 10 281
1990251N06171 1990 83 WP MM FLO 1990-09-09 06:00:00 NR 8.20000 162.000 main 1697 1680 O_____________ jtwc_wp WP201990 8.20000 162.000 15 -1 8 282
1990251N06171 1990 83 WP MM FLO 1990-09-09 09:00:00 NR 8.29236 161.600 main 1680 1661 P_____________ WP201990 8.29236 161.600 15 -1 8 284
1990251N06171 1990 83 WP MM FLO 1990-09-09 12:00:00 NR 8.40000 161.200 main 1661 1643 O_____________ jtwc_wp WP201990 8.40000 161.200 15 -1 9 286
1990251N06171 1990 83 WP MM FLO 1990-09-09 15:00:00 NR 8.54246 160.722 main 1637 1623 P_____________ WP201990 8.54246 160.722 15 -1 10 287
1990251N06171 1990 83 WP MM FLO 1990-09-09 18:00:00 NR 8.70000 160.200 main 1623 1602 O_____________ jtwc_wp WP201990 8.70000 160.200 15 -1 11 287
1990251N06171 1990 83 WP MM FLO 1990-09-09 21:00:00 NR 8.85745 159.658 main 1612 1587 P_____________ WP201990 8.85745 159.658 15 -1 11 285
1990251N06171 1990 83 WP MM FLO 1990-09-10 00:00:00 NR 9.00000 159.100 main 1587 1568 O_____________ jtwc_wp WP201990 9.00000 159.100 15 -1 11 283
1990251N06171 1990 83 WP MM FLO 1990-09-10 03:00:00 NR 9.11488 158.557 main 1568 1545 P_____________ WP201990 9.11488 158.557 15 -1 11 280
1990251N06171 1990 83 WP MM FLO 1990-09-10 06:00:00 NR 9.20000 158.000 main 1545 1525 O_____________ jtwc_wp WP201990 9.20000 158.000 15 -1 11 278
1990251N06171 1990 83 WP MM FLO 1990-09-10 09:00:00 NR 9.26494 157.408 main 1525 1495 P_____________ WP201990 9.26494 157.408 15 -1 12 275
1990251N06171 1990 83 WP MM FLO 1990-09-10 12:00:00 NR 9.30000 156.800 main 1495 1467 O_____________ jtwc_wp WP201990 9.30000 156.800 15 -1 12 272
1990251N06171 1990 83 WP MM FLO 1990-09-10 15:00:00 NR 9.30740 156.200 main 1467 1442 P_____________ WP201990 9.30740 156.200 15 -1 12 270
1990251N06171 1990 83 WP MM FLO 1990-09-10 18:00:00 NR 9.30000 155.600 main 1442 1419 O_____________ jtwc_wp WP201990 9.30000 155.600 15 -1 12 269
1990251N06171 1990 83 WP MM FLO 1990-09-10 21:00:00 NR 9.29240 155.000 main 1419 1399 P_____________ WP201990 9.29240 155.000 15 -1 12 270
1990251N06171 1990 83 WP MM FLO 1990-09-11 00:00:00 NR 9.30000 154.400 main 1399 1382 O_____________ jtwc_wp WP201990 9.30000 154.400 15 -1 12 272
1990251N06171 1990 83 WP MM FLO 1990-09-11 03:00:00 NR 9.33482 153.815 main 1382 1377 P_____________ WP201990 9.33482 153.815 15 -1 12 275
1990251N06171 1990 83 WP MM FLO 1990-09-11 06:00:00 NR 9.40000 153.200 main 1379 1372 O_____________ jtwc_wp WP201990 9.40000 153.200 15 -1 13 277
1990251N06171 1990 83 WP MM FLO 1990-09-11 09:00:00 NR 9.48495 152.515 main 1378 1373 P_____________ WP201990 9.48495 152.515 15 -1 14 278
1990251N06171 1990 83 WP MM FLO 1990-09-11 12:00:00 NR 9.60000 151.800 main 1381 1379 O_____________ jtwc_wp WP201990 9.60000 151.800 15 -1 14 280
1990251N06171 1990 83 WP MM FLO 1990-09-11 15:00:00 NR 9.71990 151.092 main 1384 1379 P_____________ WP201990 9.71990 151.092 17 -1 14 282
1990251N06171 1990 83 WP MM FLO 1990-09-11 18:00:00 NR 9.90000 150.400 main 1385 1382 O_____________ jtwc_wp WP201990 9.90000 150.400 20 -1 14 288
1990251N06171 1990 83 WP MM FLO 1990-09-11 21:00:00 NR 10.1549 149.735 main 1401 1399 P_____________ WP201990 10.1549 149.735 20 -1 15 296
1990251N06171 1990 83 WP MM FLO 1990-09-12 00:00:00 TS 10.5600 149.020 1004 tokyo main 1434 1432 OO____________ jtwc_wp WP201990 10.5000 149.100 20 -1 10.8000 148.700 2 1004 0 0 0 15 301
1990251N06171 1990 83 WP MM FLO 1990-09-12 03:00:00 TS 10.9392 148.404 main 1460 1460 PP____________ WP201990 10.9125 148.463 20 -1 10.9927 148.288 2 1003 0 0 14 311
1990251N06171 1990 83 WP MM FLO 1990-09-12 06:00:00 TS 11.4375 147.975 1002 tokyo main 1514 1514 OO_O__________ jtwc_wp WP201990 11.4000 147.900 20 -1 11.3000 147.900 2 1002 0 0 0 12.0000 148.500 TD 25 1000 13 322
1990251N06171 1990 83 WP MM FLO 1990-09-12 09:00:00 TS 11.9403 147.619 main 1568 1568 PP_P__________ WP201990 11.9347 147.485 22 -1 11.7973 147.537 2 1002 0 0 12.2375 148.050 TD 27 1000 13 323
1990251N06171 1990 83 WP MM FLO 1990-09-12 12:00:00 TS 12.4583 147.200 1002 tokyo main 1635 1635 OOOO__________ jtwc_wp WP201990 12.5000 147.100 25 -1 12.4000 147.100 2 1002 0 0 0 12.4000 147.100 1 23 1002 12.5000 147.500 TD 30 1000 14 316
1990251N06171 1990 83 WP MM FLO 1990-09-12 15:00:00 TS 12.9618 146.618 main 1691 1691 PPPP__________ WP201990 13.0648 146.645 25 -1 13.0150 146.495 2 1001 0 0 12.9476 146.473 1 23 1001 12.8126 146.787 TD 32 997 16 309
1990251N06171 1990 83 WP MM FLO 1990-09-12 18:00:00 TS 13.4733 145.933 1000 tokyo main 1749 1749 OOOO__________ jtwc_wp WP201990 13.6000 146.100 25 -1 13.6000 145.800 2 1000 0 0 0 13.5000 145.800 1 23 1000 13.2000 146.000 TS 35 995 17 306
1990251N06171 1990 83 WP MM FLO 1990-09-12 21:00:00 TS 13.9763 145.201 main 1810 1810 PPPP__________ WP201990 14.0875 145.430 25 -1 14.0801 145.070 2 999 0 0 14.0451 145.070 1 26 999 13.6924 145.235 TS 35 995 17 304
1990251N06171 1990 83 WP MM FLO 1990-09-13 00:00:00 TS 14.4250 144.500 35 998 tokyo main 1862 1862 OOOO__________ jtwc_wp WP201990 14.5000 144.700 25 -1 14.5000 144.400 3 35 998 0 9 100 100 0 14.5000 144.400 1 29 998 14.2000 144.500 TS 35 995 15 303
1990251N06171 1990 83 WP MM FLO 1990-09-13 03:00:00 TS 14.7903 143.917 main 1916 1916 PPPP__________ WP201990 14.8300 143.977 27 -1 14.9220 143.935 3 37 997 0 9 112 112 14.7869 143.942 1 33 997 14.6223 143.812 TS 35 992 13 302
1990251N06171 1990 83 WP MM FLO 1990-09-13 06:00:00 TS 15.1000 143.375 40 996 tokyo main 1956 1902 OOOO__________ jtwc_wp WP201990 15.1000 143.300 30 -1 15.3000 143.500 3 40 996 0 9 125 125 0 15.0000 143.500 2 38 996 15.0000 143.200 TS 35 990 12 299
1990251N06171 1990 83 WP MM FLO 1990-09-13 09:00:00 TS 15.3875 142.789 main 1902 1853 PPPP__________ WP201990 15.3422 142.727 32 -1 15.6152 142.900 3 40 996 0 9 112 112 15.2353 142.850 2 38 996 15.3572 142.677 TS 35 990 13 297
1990251N06171 1990 83 WP MM FLO 1990-09-13 12:00:00 TS 15.6750 142.225 40 996 tokyo main 1844 1798 OOOO__________ jtwc_wp WP201990 15.6000 142.200 35 0 15.9000 142.300 3 40 996 0 9 100 100 0 15.5000 142.200 2 38 996 15.7000 142.200 TS 35 990 12 300
1990251N06171 1990 83 WP MM FLO 1990-09-13 15:00:00 TS 15.9917 141.722 main 1798 1763 PPPP__________ WP201990 15.9274 141.650 37 0 16.1847 141.827 3 40 995 0 9 125 125 15.8122 141.712 2 38 995 16.0424 141.700 TS 37 987 12 306
1990251N06171 1990 83 WP MM FLO 1990-09-13 18:00:00 TS 16.3500 141.250 40 994 tokyo main 1766 1722 OOOO__________ jtwc_wp WP201990 16.3000 141.100 40 0 16.5000 141.400 3 40 994 0 9 150 150 0 16.2000 141.300 2 38 995 16.4000 141.200 TS 40 985 12 311
1990251N06171 1990 83 WP MM FLO 1990-09-13 21:00:00 TS 16.7617 140.788 main 1725 1687 PPPP__________ WP201990 16.6849 140.550 42 0 16.8923 140.965 3 42 992 0 9 187 187 16.6771 140.930 2 43 995 16.7923 140.707 TS 42 982 12 313
1990251N06171 1990 83 WP MM FLO 1990-09-14 00:00:00 TS 17.2000 140.300 45 990 tokyo main 1687 1650 OOOO__________ jtwc_wp WP201990 17.1000 140.000 45 0 17.3000 140.500 3 45 990 0 9 225 225 0 17.2000 140.500 3 48 995 17.2000 140.200 TS 45 980 13 311
1990251N06171 1990 83 WP MM FLO 1990-09-14 03:00:00 TS 17.6343 139.740 main 1640 1607 PPPP__________ WP201990 17.5498 139.457 47 0 17.6574 139.972 3 47 987 0 9 225 225 17.7302 139.873 3 48 990 17.5999 139.657 TS 45 980 14 308
1990251N06171 1990 83 WP MM FLO 1990-09-14 06:00:00 TS 18.0500 139.150 50 985 tokyo main 1611 1566 OOOO__________ jtwc_wp WP201990 18.0000 138.900 50 0 18.0000 139.400 4 50 985 0 9 225 225 0 18.2000 139.200 3 48 985 18.0000 139.100 TS 45 980 14 306
1990251N06171 1990 83 WP MM FLO 1990-09-14 09:00:00 TS 18.4197 138.586 main 1566 1529 PPPP__________ WP201990 18.4149 138.307 52 0 18.3423 138.815 4 52 982 0 9 225 187 18.5144 138.664 3 53 982 18.4073 138.557 TS 47 977 13 304
1990251N06171 1990 83 WP MM FLO 1990-09-14 12:00:00 TS 18.7750 138.000 55 980 tokyo main 1529 1489 OOOO__________ jtwc_wp WP201990 18.8000 137.700 55 0 18.7000 138.200 4 55 980 9 50 50 8 225 150 0 18.8000 138.100 3 58 980 18.8000 138.000 STS 50 975 14 302
1990251N06171 1990 83 WP MM FLO 1990-09-14 15:00:00 TS 19.1537 137.352 main 1479 1418 PPPP__________ WP201990 19.1574 137.092 57 0 19.0998 137.565 4 57 977 9 55 55 8 225 150 19.2004 137.343 3 58 977 19.1574 137.407 STS 52 972 14 301
1990251N06171 1990 83 WP MM FLO 1990-09-14 18:00:00 TS 19.5250 136.700 60 975 tokyo main 1418 1362 OOOO__________ jtwc_wp WP201990 19.5000 136.500 60 0 19.5000 136.900 4 60 975 9 60 60 8 225 150 0 19.6000 136.600 3 58 975 19.5000 136.800 STS 55 970 14 301
1990251N06171 1990 83 WP MM FLO 1990-09-14 21:00:00 TS 19.8623 136.092 main 1352 1302 PPPP__________ WP201990 19.8498 135.935 62 0 19.8502 136.170 4 62 972 9 60 60 8 225 150 19.8995 136.062 3 58 975 19.8498 136.200 STS 57 967 13 301
1990251N06171 1990 83 WP MM FLO 1990-09-15 00:00:00 TS 20.2000 135.525 65 970 tokyo main 1298 1238 OOOO__________ jtwc_wp WP201990 20.2000 135.400 65 1 20.2000 135.500 5 65 970 9 60 60 8 225 150 0 20.2000 135.600 3 58 975 20.2000 135.600 STS 60 965 12 305
1990251N06171 1990 83 WP MM FLO 1990-09-15 03:00:00 TS 20.5747 135.003 main 1238 1190 PPPP__________ WP201990 20.5498 134.892 67 1 20.5994 135.027 5 67 967 9 65 65 8 225 150 20.5923 135.107 3 63 972 20.5574 134.985 STS 60 965 12 308
1990251N06171 1990 83 WP MM FLO 1990-09-15 06:00:00 TS 20.9500 134.500 70 965 tokyo main 1179 1132 OOOO__________ jtwc_wp WP201990 20.9000 134.400 70 1 21.0000 134.600 5 70 965 9 70 70 8 225 150 0 21.0000 134.600 4 68 970 20.9000 134.400 STS 60 965 12 307
1990251N06171 1990 83 WP MM FLO 1990-09-15 09:00:00 TS 21.2986 133.977 main 1132 1086 PPPP__________ WP201990 21.2574 133.900 72 1 21.3650 134.065 5 72 962 9 70 70 8 225 150 21.3649 134.057 4 68 970 21.2072 133.885 STS 62 962 12 305
1990251N06171 1990 83 WP MM FLO 1990-09-15 12:00:00 TS 21.6250 133.450 75 960 tokyo main 1086 1039 OOOO__________ jtwc_wp WP201990 21.6000 133.400 75 1 21.7000 133.500 5 75 960 9 70 70 8 225 150 0 21.7000 133.500 4 68 970 21.5000 133.400 T 65 960 12 303
1990251N06171 1990 83 WP MM FLO 1990-09-15 15:00:00 TS 21.9381 132.914 main 1039 997 PPPP__________ WP201990 21.9074 132.892 80 1 22.0225 132.935 5 77 955 9 75 75 8 237 150 22.0225 132.935 4 72 965 21.7999 132.892 T 70 955 11 302
1990251N06171 1990 83 WP MM FLO 1990-09-15 18:00:00 TS 22.2250 132.400 80 950 tokyo main 997 958 OOOO__________ jtwc_wp WP201990 22.2000 132.400 85 2 22.3000 132.400 5 80 950 9 80 80 8 250 150 0 22.3000 132.400 4 77 960 22.1000 132.400 T 75 950 11 301
1990251N06171 1990 83 WP MM FLO 1990-09-15 21:00:00 TS 22.4767 131.933 main 956 930 PPPP__________ WP201990 22.5074 131.935 92 2 22.4998 131.927 5 85 942 9 80 80 8 275 200 22.4998 131.927 4 77 960 22.3998 131.942 T 80 945 10 301
1990251N06171 1990 83 WP MM FLO 1990-09-16 00:00:00 TS 22.7250 131.500 90 935 tokyo main 930 894 OOOO__________ jtwc_wp WP201990 22.8000 131.500 100 3 22.7000 131.500 5 90 935 9 80 80 8 300 250 0 22.7000 131.500 4 77 960 22.7000 131.500 ST 85 940 10 304
1990251N06171 1990 83 WP MM FLO 1990-09-16 03:00:00 TS 23.0199 131.073 main 894 859 PPPP__________ WP201990 23.0649 131.085 107 3 22.9998 131.093 5 95 927 9 102 102 8 300 275 22.9998 131.093 4 82 955 23.0151 131.020 ST 90 937 10 307
1990251N06171 1990 83 WP MM FLO 1990-09-16 06:00:00 TS 23.3000 130.675 100 920 tokyo main 859 838 OOOO__________ jtwc_wp WP201990 23.3000 130.700 115 4 23.3000 130.700 5 100 920 9 125 125 9 300 300 0 23.3000 130.700 5 87 950 23.3000 130.600 ST 95 935 9 304
1990251N06171 1990 83 WP MM FLO 1990-09-16 09:00:00 TS 23.5056 130.299 main 838 818 PPPP__________ WP201990 23.5000 130.327 122 4 23.5075 130.277 5 102 912 9 125 125 9 300 300 23.5076 130.270 5 92 945 23.5073 130.320 ST 100 930 8 302
1990251N06171 1990 83 WP MM FLO 1990-09-16 12:00:00 TS 23.7000 129.975 105 905 tokyo main 818 788 OOOO__________ jtwc_wp WP201990 23.7000 130.000 130 4 23.7000 129.900 5 105 905 9 125 125 9 300 300 0 23.7000 129.900 5 97 940 23.7000 130.100 SuperT 105 925 7 308
1990251N06171 1990 83 WP MM FLO 1990-09-16 15:00:00 TS 23.9293 129.715 main 788 762 PPPP__________ WP201990 23.9349 129.727 132 4 23.9274 129.612 5 110 900 9 125 125 9 337 262 23.9273 129.670 5 101 935 23.9275 129.850 SuperT 102 927 7 319
1990251N06171 1990 83 WP MM FLO 1990-09-16 18:00:00 TS 24.2000 129.500 115 895 tokyo main 762 738 OOOO__________ jtwc_wp WP201990 24.2000 129.500 135 4 24.2000 129.400 5 115 895 9 125 125 1 375 225 0 24.2000 129.500 6 106 930 24.2000 129.600 SuperT 100 930 7 326
1990251N06171 1990 83 WP MM FLO 1990-09-16 21:00:00 TS 24.5244 129.279 main 738 698 PPPP__________ WP201990 24.4775 129.277 135 4 24.5424 129.227 5 117 892 9 125 125 1 375 225 24.5425 129.285 6 106 930 24.5350 129.328 SuperT 100 930 8 332
1990251N06171 1990 83 WP MM FLO 1990-09-17 00:00:00 TS 24.8750 129.100 120 890 tokyo main 698 668 OOOO__________ jtwc_wp WP201990 24.8000 129.100 135 4 24.9000 129.100 5 120 890 9 125 125 1 375 225 0 24.9000 129.100 6 106 930 24.9000 129.100 SuperT 100 930 8 338
1990251N06171 1990 83 WP MM FLO 1990-09-17 03:00:00 TS 25.2181 128.966 main 668 638 PPPP__________ WP201990 25.2000 128.963 140 5 25.2075 128.970 5 120 890 9 125 125 1 375 225 25.2075 128.970 6 106 930 25.2574 128.962 SuperT 100 930 7 345
1990251N06171 1990 83 WP MM FLO 1990-09-17 06:00:00 TS 25.5500 128.900 120 890 tokyo main 628 606 OOOO__________ jtwc_wp WP201990 25.6000 128.900 145 5 25.5000 128.900 5 120 890 9 125 125 1 375 225 0 25.5000 128.900 6 106 930 25.6000 128.900 SuperT 100 930 6 353
1990251N06171 1990 83 WP MM FLO 1990-09-17 09:00:00 TS 25.8518 128.891 main 595 574 PPPP__________ WP201990 25.9150 128.920 145 5 25.8000 128.920 5 117 892 9 125 125 1 375 225 25.7925 128.863 6 106 930 25.9000 128.863 SuperT 97 932 6 4
1990251N06171 1990 83 WP MM FLO 1990-09-17 12:00:00 TS 26.1500 128.950 115 895 tokyo main 560 539 OOOO__________ jtwc_wp WP201990 26.2000 129.000 145 5 26.1000 129.000 5 115 895 9 125 125 1 375 225 0 26.1000 128.900 6 106 930 26.2000 128.900 ST 95 935 6 13
1990251N06171 1990 83 WP MM FLO 1990-09-17 15:00:00 TS 26.4581 129.043 main 528 490 PPPP__________ WP201990 26.4925 129.078 140 5 26.3774 129.070 5 112 897 9 125 125 1 375 225 26.4275 129.013 6 106 930 26.5350 129.013 ST 95 935 7 19
1990251N06171 1990 83 WP MM FLO 1990-09-17 18:00:00 TS 26.8000 129.200 110 900 tokyo main 490 442 OOOO__________ jtwc_wp WP201990 26.8000 129.200 135 4 26.7000 129.200 5 110 900 9 125 125 1 375 225 0 26.8000 129.200 6 106 930 26.9000 129.200 ST 95 935 8 24
1990251N06171 1990 83 WP MM FLO 1990-09-17 21:00:00 TS 27.1975 129.421 main 442 391 PPPP__________ WP201990 27.1275 129.370 130 4 27.1276 129.435 5 107 902 9 125 125 1 375 225 27.2426 129.442 6 101 932 27.2925 129.435 ST 92 937 9 27
1990251N06171 1990 83 WP MM FLO 1990-09-18 00:00:00 TS 27.6250 129.675 105 905 tokyo main 391 343 OOOO__________ jtwc_wp WP201990 27.5000 129.600 125 4 27.6000 129.700 5 105 905 9 125 125 8 375 225 0 27.7000 129.700 5 97 935 27.7000 129.700 ST 90 940 9 26
1990251N06171 1990 83 WP MM FLO 1990-09-18 03:00:00 TS 28.0461 129.889 main 343 284 PPPP__________ WP201990 27.9274 129.870 120 4 28.0497 129.871 5 102 910 9 125 125 8 387 237 28.1073 129.878 5 97 935 28.0999 129.935 ST 90 940 10 26
1990251N06171 1990 83 WP MM FLO 1990-09-18 06:00:00 TS 28.4750 130.150 100 915 tokyo main 283 235 OOOO__________ jtwc_wp WP201990 28.4000 130.200 115 4 28.5000 130.100 5 100 915 9 125 125 8 400 250 0 28.5000 130.100 5 97 935 28.5000 130.200 ST 90 940 10 33
1990251N06171 1990 83 WP MM FLO 1990-09-18 09:00:00 TS 28.9052 130.537 main 235 190 PPPP__________ WP201990 28.8925 130.585 112 3 28.9580 130.549 5 100 917 9 150 125 8 412 337 28.8852 130.478 5 92 940 28.8850 130.535 ST 87 942 11 39
1990251N06171 1990 83 WP MM FLO 1990-09-18 12:00:00 TS 29.3500 130.950 100 920 tokyo main 180 142 OOOO__________ jtwc_wp WP201990 29.4000 131.000 110 3 29.4000 131.000 5 100 920 2 175 125 9 425 425 0 29.3000 130.900 5 87 945 29.3000 130.900 ST 85 945 11 35
1990251N06171 1990 83 WP MM FLO 1990-09-18 15:00:00 TS 29.8210 131.270 main 145 116 PPPP__________ WP201990 29.9073 131.393 107 3 29.7920 131.209 5 97 922 2 162 125 9 412 412 29.7922 131.243 5 87 950 29.7923 131.235 ST 85 945 11 31
1990251N06171 1990 83 WP MM FLO 1990-09-18 18:00:00 TS 30.3000 131.600 95 925 tokyo main 116 91 OOOO__________ jtwc_wp WP201990 30.4000 131.800 105 3 30.2000 131.400 5 95 925 2 150 125 9 400 400 0 30.3000 131.600 5 87 955 30.3000 131.600 ST 85 945 11 34
1990251N06171 1990 83 WP MM FLO 1990-09-18 21:00:00 TS 30.7451 131.981 main 96 86 PPPP__________ WP201990 30.8345 132.206 100 3 30.6769 131.711 5 92 930 2 150 125 9 400 400 30.7271 132.006 5 82 957 30.7420 131.999 ST 85 945 12 39
1990251N06171 1990 83 WP MM FLO 1990-09-19 00:00:00 TS 31.2250 132.475 90 935 tokyo main 106 104 OOOO__________ jtwc_wp WP201990 31.3000 132.700 95 2 31.2000 132.200 5 90 935 2 150 125 9 400 400 0 31.2000 132.500 4 77 960 31.2000 132.500 ST 85 945 14 44
1990251N06171 1990 83 WP MM FLO 1990-09-19 03:00:00 TS 31.7691 133.119 main 100 79 PPPP__________ WP201990 31.8548 133.341 92 2 31.7125 132.919 5 87 937 2 150 125 9 375 375 31.8120 133.083 4 77 960 31.6972 133.134 ST 82 950 17 46
1990251N06171 1990 83 WP MM FLO 1990-09-19 06:00:00 TS 32.4000 133.900 85 940 tokyo main 90 43 OOOO__________ jtwc_wp WP201990 32.5000 134.100 90 2 32.3000 133.800 5 85 940 2 150 125 9 350 350 0 32.5000 133.800 4 77 960 32.3000 133.900 T 80 955 19 47
1990251N06171 1990 83 WP MM FLO 1990-09-19 09:00:00 TS 33.0806 134.772 main 56 0 PPPP__________ WP201990 33.1826 134.937 87 2 32.9749 134.729 5 82 945 2 125 102 9 350 350 33.1400 134.657 4 72 962 33.0249 134.764 T 70 960 21 45
1990251N06171 1990 83 WP MM FLO 1990-09-19 12:00:00 TS 33.9000 135.700 80 950 tokyo main 0 0 OOOO__________ jtwc_wp WP201990 34.0000 135.800 85 2 33.8000 135.700 5 80 950 2 100 80 9 350 350 0 33.9000 135.600 4 68 965 33.9000 135.700 STS 60 965 23 39
1990251N06171 1990 83 WP MM FLO 1990-09-19 15:00:00 TS 34.8630 136.535 main 0 0 PPPP__________ WP201990 34.9727 136.538 75 1 34.7649 136.581 5 65 965 2 100 90 9 350 350 34.8649 136.466 4 63 970 34.8494 136.553 STS 52 970 26 35
1990251N06171 1990 83 WP MM FLO 1990-09-19 18:00:00 TS 36.0000 137.525 50 980 tokyo main 0 0 OOOO__________ jtwc_wp WP201990 36.1000 137.400 65 1 35.9000 137.600 4 50 980 9 100 100 9 350 350 0 36.0000 137.500 3 58 975 36.0000 137.600 TS 45 975 31 36
1990251N06171 1990 83 WP MM FLO 1990-09-19 21:00:00 TS 37.3463 138.796 main 0 0 PPPP__________ WP201990 37.3767 138.521 60 0 37.2405 138.855 4 47 982 9 100 100 9 475 325 37.2910 138.805 3 53 980 37.4769 139.002 TS 42 980 35 42
1990251N06171 1990 83 WP MM FLO 1990-09-20 00:00:00 TS 38.6067 140.427 45 984 tokyo main 0 0 OOOO__________ jtwc_wp WP201990 38.6000 140.000 55 0 38.5000 140.500 3 45 984 9 100 100 3 600 300 0 38.5000 140.500 3 48 985 38.9000 140.800 TS 40 985 36 53
1990251N06171 1990 83 WP MM FLO 1990-09-20 03:00:00 TS 39.4852 142.442 main 25 25 PPPP__________ WP201990 39.5322 141.869 52 0 39.3693 142.597 3 988 9 3 39.3466 142.606 3 43 987 39.9005 142.949 TS 40 987 36 65
1990251N06171 1990 83 WP MM FLO 1990-09-20 06:00:00 MX 40.1385 144.715 992 tokyo main 231 231 OOOO__________ jtwc_wp WP201990 40.3000 144.000 50 0 40.0000 145.000 6 992 0 0 0 40.0000 145.000 2 38 990 40.6000 145.300 TS 40 990 37 71
1990251N06171 1990 83 WP MM FLO 1990-09-20 09:00:00 MX 40.6896 147.040 main 304 304 PPP___________ WP201990 41.0345 146.167 47 0 40.4597 147.478 6 990 0 0 40.5747 147.474 2 33 990 TS 38 72
1990251N06171 1990 83 WP MM FLO 1990-09-20 12:00:00 ET 41.3000 149.467 988 tokyo main 389 389 OOO___________ jtwc_wp WP201990 41.7000 148.400 45 0 41.0000 150.000 6 988 0 0 0 41.2000 150.000 9 29 990 39 69
1990251N06171 1990 83 WP MM FLO 1990-09-20 15:00:00 ET 42.0906 151.874 main 426 423 PPP___________ WP201990 42.3167 150.618 45 0 41.9200 152.499 6 988 0 0 42.0349 152.504 9 29 990 39 65
1990251N06171 1990 83 WP MM FLO 1990-09-20 18:00:00 ET 42.9667 154.300 988 tokyo main 459 459 OOO___________ jtwc_wp WP201990 42.9000 152.900 45 0 43.0000 155.000 6 988 0 0 0 43.0000 155.000 9 29 990 39 64
1990251N06171 1990 83 WP MM FLO 1990-09-20 21:00:00 ET 43.8503 156.716 main 550 550 PPP___________ WP201990 43.4374 155.298 47 0 44.0642 157.427 6 986 0 0 44.0493 157.425 9 29 987 39 65
1990251N06171 1990 83 WP MM FLO 1990-09-21 00:00:00 ET 44.6364 159.200 984 tokyo main 663 657 OOO___________ jtwc_wp WP201990 44.0000 157.800 50 0 45.0000 160.000 6 984 0 0 0 45.0000 160.000 9 29 985 40 70
1990251N06171 1990 83 WP MM FLO 1990-09-21 03:00:00 ET 45.2476 161.995 main 717 717 PPP___________ WP201990 44.6489 160.464 50 0 45.6574 163.075 6 984 0 0 45.6253 162.897 9 29 985 40 75
1990251N06171 1990 83 WP MM FLO 1990-09-21 06:00:00 ET 45.6889 164.711 984 tokyo main 820 820 OOO___________ jtwc_wp WP201990 45.3000 163.100 50 0 46.0000 166.000 6 984 0 0 0 46.0000 166.000 9 29 985 34 78
1990251N06171 1990 83 WP MM FLO 1990-09-21 09:00:00 ET 45.9663 166.819 main 897 897 PP____________ WP201990 45.8707 165.479 50 0 46.0619 168.160 6 982 0 0 9 29 80
1990251N06171 1990 83 WP MM FLO 1990-09-21 12:00:00 ET 46.2000 168.900 980 tokyo main 990 990 OO____________ jtwc_wp WP201990 46.4000 167.800 50 0 46.0000 170.000 6 980 0 0 0 30 82
1990251N06171 1990 83 WP MM FLO 1990-09-21 15:00:00 ET 46.3963 171.101 main 1080 1080 PP____________ WP201990 46.8750 170.267 50 0 45.9176 171.935 6 980 0 0 32 84
1990251N06171 1990 83 WP MM FLO 1990-09-21 18:00:00 ET 46.5571 173.486 980 tokyo main 1194 1194 OO____________ jtwc_wp WP201990 47.3000 172.800 50 0 46.0000 174.000 6 980 0 0 0 35 83
1990251N06171 1990 83 WP MM FLO 1990-09-21 21:00:00 ET 46.8495 176.218 main 1256 1087 PP____________ WP201990 47.6767 175.381 50 0 46.4359 176.637 6 978 0 0 37 79
1990251N06171 1990 83 WP MM FLO 1990-09-22 00:00:00 ET 47.2500 178.750 976 tokyo main 1069 970 OO____________ jtwc_wp WP201990 48.0000 178.000 50 0 47.0000 179.000 6 976 0 0 0 29 77
1990251N06171 1990 83 EP CP FLO 1990-09-22 03:00:00 ET 47.5164 180.332 main 970 894 _P____________ WP201990 -1 47.5164 -179.668 6 976 0 0 17 64
1990251N06171 1990 83 EP CP FLO 1990-09-22 06:00:00 ET 48.0000 181.000 main 894 _O____________ -1 48.0000 181.000 6 976 0 0 0 13 43

デジタル台風データ・検索

IBTrACS Databaseについて

本データベースは、米国NOAAが公開する1842年以降の世界の熱帯低気圧のベストトラックデータアーカイブInternational Best Track Archive for Climate Stewardship (IBTrACS)を、ウェブで閲覧しやすい形式に変換したものです。

最終更新日:2021-12-01